sensor_id;sensor_type;location;lat;lon;timestamp;P1;durP1;ratioP1;P2;durP2;ratioP2
25123;SDS011;13104;51.030;4.686;2024-02-14T00:00:10;1.35;;;1.20;;
25123;SDS011;13104;51.030;4.686;2024-02-14T00:02:44;1.23;;;0.60;;
25123;SDS011;13104;51.030;4.686;2024-02-14T00:05:14;0.60;;;0.60;;
25123;SDS011;13104;51.030;4.686;2024-02-14T00:07:40;0.57;;;0.57;;
25123;SDS011;13104;51.030;4.686;2024-02-14T00:10:06;1.40;;;0.75;;
25123;SDS011;13104;51.030;4.686;2024-02-14T00:12:33;1.25;;;1.10;;
25123;SDS011;13104;51.030;4.686;2024-02-14T00:15:00;0.95;;;0.88;;
25123;SDS011;13104;51.030;4.686;2024-02-14T00:17:28;1.10;;;0.90;;
25123;SDS011;13104;51.030;4.686;2024-02-14T00:19:54;1.05;;;0.70;;
25123;SDS011;13104;51.030;4.686;2024-02-14T00:22:20;0.77;;;0.65;;
25123;SDS011;13104;51.030;4.686;2024-02-14T00:24:46;0.52;;;0.50;;
25123;SDS011;13104;51.030;4.686;2024-02-14T00:27:13;1.90;;;1.00;;
25123;SDS011;13104;51.030;4.686;2024-02-14T00:29:42;1.35;;;0.82;;
25123;SDS011;13104;51.030;4.686;2024-02-14T00:32:10;1.27;;;0.80;;
25123;SDS011;13104;51.030;4.686;2024-02-14T00:34:36;0.90;;;0.63;;
25123;SDS011;13104;51.030;4.686;2024-02-14T00:37:02;1.70;;;0.80;;
25123;SDS011;13104;51.030;4.686;2024-02-14T00:39:29;1.17;;;0.55;;
25123;SDS011;13104;51.030;4.686;2024-02-14T00:41:55;1.02;;;0.93;;
25123;SDS011;13104;51.030;4.686;2024-02-14T00:44:21;0.60;;;0.60;;
25123;SDS011;13104;51.030;4.686;2024-02-14T00:46:47;1.67;;;0.90;;
25123;SDS011;13104;51.030;4.686;2024-02-14T00:49:14;1.42;;;1.15;;
25123;SDS011;13104;51.030;4.686;2024-02-14T00:51:40;0.93;;;0.82;;
25123;SDS011;13104;51.030;4.686;2024-02-14T00:54:06;1.85;;;0.93;;
25123;SDS011;13104;51.030;4.686;2024-02-14T00:56:33;1.45;;;0.95;;
25123;SDS011;13104;51.030;4.686;2024-02-14T00:59:00;2.58;;;0.70;;
25123;SDS011;13104;51.030;4.686;2024-02-14T01:01:26;0.70;;;0.70;;
25123;SDS011;13104;51.030;4.686;2024-02-14T01:03:52;0.50;;;0.50;;
25123;SDS011;13104;51.030;4.686;2024-02-14T01:06:19;1.00;;;0.90;;
25123;SDS011;13104;51.030;4.686;2024-02-14T01:08:45;2.13;;;0.80;;
25123;SDS011;13104;51.030;4.686;2024-02-14T01:11:11;1.17;;;0.90;;
25123;SDS011;13104;51.030;4.686;2024-02-14T01:13:37;2.47;;;1.20;;
25123;SDS011;13104;51.030;4.686;2024-02-14T01:16:03;0.82;;;0.80;;
25123;SDS011;13104;51.030;4.686;2024-02-14T01:18:30;0.47;;;0.43;;
25123;SDS011;13104;51.030;4.686;2024-02-14T01:20:59;1.50;;;0.98;;
25123;SDS011;13104;51.030;4.686;2024-02-14T01:23:25;1.77;;;1.17;;
25123;SDS011;13104;51.030;4.686;2024-02-14T01:25:51;2.05;;;1.30;;
25123;SDS011;13104;51.030;4.686;2024-02-14T01:28:19;0.73;;;0.70;;
25123;SDS011;13104;51.030;4.686;2024-02-14T01:30:45;1.83;;;0.90;;
25123;SDS011;13104;51.030;4.686;2024-02-14T01:33:12;1.30;;;0.80;;
25123;SDS011;13104;51.030;4.686;2024-02-14T01:35:38;1.45;;;1.17;;
25123;SDS011;13104;51.030;4.686;2024-02-14T01:38:04;1.05;;;0.93;;
25123;SDS011;13104;51.030;4.686;2024-02-14T01:40:31;1.38;;;0.93;;
25123;SDS011;13104;51.030;4.686;2024-02-14T01:42:57;1.83;;;1.17;;
25123;SDS011;13104;51.030;4.686;2024-02-14T01:45:23;4.00;;;1.30;;
25123;SDS011;13104;51.030;4.686;2024-02-14T01:47:49;0.60;;;0.60;;
25123;SDS011;13104;51.030;4.686;2024-02-14T01:50:15;3.42;;;0.93;;
25123;SDS011;13104;51.030;4.686;2024-02-14T01:52:43;1.48;;;1.00;;
25123;SDS011;13104;51.030;4.686;2024-02-14T01:55:10;1.20;;;0.98;;
25123;SDS011;13104;51.030;4.686;2024-02-14T01:57:37;1.20;;;0.88;;
25123;SDS011;13104;51.030;4.686;2024-02-14T02:00:04;1.45;;;1.00;;
25123;SDS011;13104;51.030;4.686;2024-02-14T02:02:33;1.75;;;1.00;;
25123;SDS011;13104;51.030;4.686;2024-02-14T02:05:02;0.80;;;0.80;;
25123;SDS011;13104;51.030;4.686;2024-02-14T02:07:28;1.63;;;1.08;;
25123;SDS011;13104;51.030;4.686;2024-02-14T02:09:55;2.47;;;1.30;;
25123;SDS011;13104;51.030;4.686;2024-02-14T02:12:21;3.50;;;1.25;;
25123;SDS011;13104;51.030;4.686;2024-02-14T02:14:50;3.65;;;0.77;;
25123;SDS011;13104;51.030;4.686;2024-02-14T02:17:16;2.80;;;1.23;;
25123;SDS011;13104;51.030;4.686;2024-02-14T02:19:42;2.58;;;1.52;;
25123;SDS011;13104;51.030;4.686;2024-02-14T02:22:09;1.67;;;1.17;;
25123;SDS011;13104;51.030;4.686;2024-02-14T02:24:35;1.33;;;0.82;;
25123;SDS011;13104;51.030;4.686;2024-02-14T02:27:01;1.10;;;0.90;;
25123;SDS011;13104;51.030;4.686;2024-02-14T02:29:28;0.88;;;0.82;;
25123;SDS011;13104;51.030;4.686;2024-02-14T02:31:54;6.13;;;1.15;;
25123;SDS011;13104;51.030;4.686;2024-02-14T02:34:20;0.95;;;0.88;;
25123;SDS011;13104;51.030;4.686;2024-02-14T02:36:46;7.15;;;1.33;;
25123;SDS011;13104;51.030;4.686;2024-02-14T02:39:15;1.70;;;1.20;;
25123;SDS011;13104;51.030;4.686;2024-02-14T02:41:41;1.35;;;1.00;;
25123;SDS011;13104;51.030;4.686;2024-02-14T02:44:12;1.48;;;1.10;;
25123;SDS011;13104;51.030;4.686;2024-02-14T02:46:38;0.95;;;0.82;;
25123;SDS011;13104;51.030;4.686;2024-02-14T02:49:04;2.10;;;1.25;;
25123;SDS011;13104;51.030;4.686;2024-02-14T02:51:30;2.05;;;1.30;;
25123;SDS011;13104;51.030;4.686;2024-02-14T02:53:56;0.90;;;0.90;;
25123;SDS011;13104;51.030;4.686;2024-02-14T02:56:22;4.05;;;1.30;;
25123;SDS011;13104;51.030;4.686;2024-02-14T02:58:52;2.10;;;1.08;;
25123;SDS011;13104;51.030;4.686;2024-02-14T03:01:18;1.48;;;1.17;;
25123;SDS011;13104;51.030;4.686;2024-02-14T03:03:45;2.28;;;1.23;;
25123;SDS011;13104;51.030;4.686;2024-02-14T03:06:11;0.88;;;0.80;;
25123;SDS011;13104;51.030;4.686;2024-02-14T03:08:37;0.95;;;0.93;;
25123;SDS011;13104;51.030;4.686;2024-02-14T03:11:06;1.58;;;0.88;;
25123;SDS011;13104;51.030;4.686;2024-02-14T03:13:33;2.17;;;1.17;;
25123;SDS011;13104;51.030;4.686;2024-02-14T03:16:00;1.88;;;0.90;;
25123;SDS011;13104;51.030;4.686;2024-02-14T03:18:27;1.15;;;1.05;;
25123;SDS011;13104;51.030;4.686;2024-02-14T03:20:53;1.45;;;1.10;;
25123;SDS011;13104;51.030;4.686;2024-02-14T03:23:19;1.75;;;1.05;;
25123;SDS011;13104;51.030;4.686;2024-02-14T03:25:45;3.88;;;1.40;;
25123;SDS011;13104;51.030;4.686;2024-02-14T03:28:11;1.80;;;1.10;;
25123;SDS011;13104;51.030;4.686;2024-02-14T03:30:38;2.17;;;1.33;;
25123;SDS011;13104;51.030;4.686;2024-02-14T03:33:04;2.47;;;1.35;;
25123;SDS011;13104;51.030;4.686;2024-02-14T03:35:33;2.22;;;1.08;;
25123;SDS011;13104;51.030;4.686;2024-02-14T03:38:02;9.80;;;1.90;;
25123;SDS011;13104;51.030;4.686;2024-02-14T03:40:28;1.85;;;1.40;;
25123;SDS011;13104;51.030;4.686;2024-02-14T03:42:57;1.23;;;1.10;;
25123;SDS011;13104;51.030;4.686;2024-02-14T03:45:23;1.83;;;1.20;;
25123;SDS011;13104;51.030;4.686;2024-02-14T03:47:49;2.95;;;1.25;;
25123;SDS011;13104;51.030;4.686;2024-02-14T03:50:16;2.17;;;1.60;;
25123;SDS011;13104;51.030;4.686;2024-02-14T03:52:42;2.20;;;1.52;;
25123;SDS011;13104;51.030;4.686;2024-02-14T03:55:08;1.55;;;1.17;;
25123;SDS011;13104;51.030;4.686;2024-02-14T03:57:34;2.83;;;1.95;;
25123;SDS011;13104;51.030;4.686;2024-02-14T04:00:03;2.10;;;1.58;;
25123;SDS011;13104;51.030;4.686;2024-02-14T04:02:33;1.65;;;1.23;;
25123;SDS011;13104;51.030;4.686;2024-02-14T04:05:00;2.88;;;1.73;;
25123;SDS011;13104;51.030;4.686;2024-02-14T04:07:27;2.38;;;1.83;;
25123;SDS011;13104;51.030;4.686;2024-02-14T04:09:54;2.38;;;1.65;;
25123;SDS011;13104;51.030;4.686;2024-02-14T04:12:20;2.47;;;1.55;;
25123;SDS011;13104;51.030;4.686;2024-02-14T04:14:47;2.75;;;1.75;;
25123;SDS011;13104;51.030;4.686;2024-02-14T04:17:13;3.83;;;1.83;;
25123;SDS011;13104;51.030;4.686;2024-02-14T04:19:40;8.10;;;2.03;;
25123;SDS011;13104;51.030;4.686;2024-02-14T04:22:06;1.27;;;0.93;;
25123;SDS011;13104;51.030;4.686;2024-02-14T04:24:33;3.97;;;1.40;;
25123;SDS011;13104;51.030;4.686;2024-02-14T04:27:00;1.90;;;1.60;;
25123;SDS011;13104;51.030;4.686;2024-02-14T04:29:28;4.07;;;1.70;;
25123;SDS011;13104;51.030;4.686;2024-02-14T04:31:55;4.00;;;1.52;;
25123;SDS011;13104;51.030;4.686;2024-02-14T04:34:22;2.60;;;1.48;;
25123;SDS011;13104;51.030;4.686;2024-02-14T04:36:48;3.25;;;1.92;;
25123;SDS011;13104;51.030;4.686;2024-02-14T04:39:14;2.20;;;1.52;;
25123;SDS011;13104;51.030;4.686;2024-02-14T04:41:40;4.63;;;2.13;;
25123;SDS011;13104;51.030;4.686;2024-02-14T04:44:06;2.95;;;1.50;;
25123;SDS011;13104;51.030;4.686;2024-02-14T04:46:33;5.30;;;2.08;;
25123;SDS011;13104;51.030;4.686;2024-02-14T04:49:04;2.17;;;1.42;;
25123;SDS011;13104;51.030;4.686;2024-02-14T04:51:30;2.17;;;1.60;;
25123;SDS011;13104;51.030;4.686;2024-02-14T04:53:57;4.10;;;1.83;;
25123;SDS011;13104;51.030;4.686;2024-02-14T04:56:26;2.20;;;1.77;;
25123;SDS011;13104;51.030;4.686;2024-02-14T04:58:53;1.85;;;1.20;;
25123;SDS011;13104;51.030;4.686;2024-02-14T05:01:20;2.13;;;1.80;;
25123;SDS011;13104;51.030;4.686;2024-02-14T05:03:46;2.83;;;1.77;;
25123;SDS011;13104;51.030;4.686;2024-02-14T05:06:12;2.53;;;1.73;;
25123;SDS011;13104;51.030;4.686;2024-02-14T05:08:38;1.67;;;1.20;;
25123;SDS011;13104;51.030;4.686;2024-02-14T05:11:04;1.90;;;1.33;;
25123;SDS011;13104;51.030;4.686;2024-02-14T05:13:30;1.52;;;1.42;;
25123;SDS011;13104;51.030;4.686;2024-02-14T05:15:57;2.85;;;1.88;;
25123;SDS011;13104;51.030;4.686;2024-02-14T05:18:23;3.40;;;1.75;;
25123;SDS011;13104;51.030;4.686;2024-02-14T05:20:49;2.35;;;1.52;;
25123;SDS011;13104;51.030;4.686;2024-02-14T05:23:16;6.85;;;1.80;;
25123;SDS011;13104;51.030;4.686;2024-02-14T05:25:45;6.38;;;1.80;;
25123;SDS011;13104;51.030;4.686;2024-02-14T05:28:12;3.90;;;1.60;;
25123;SDS011;13104;51.030;4.686;2024-02-14T05:30:40;2.53;;;1.40;;
25123;SDS011;13104;51.030;4.686;2024-02-14T05:33:06;5.43;;;1.77;;
25123;SDS011;13104;51.030;4.686;2024-02-14T05:35:32;3.05;;;2.15;;
25123;SDS011;13104;51.030;4.686;2024-02-14T05:37:58;3.85;;;1.60;;
25123;SDS011;13104;51.030;4.686;2024-02-14T05:40:25;1.83;;;1.45;;
25123;SDS011;13104;51.030;4.686;2024-02-14T05:42:51;1.70;;;1.27;;
25123;SDS011;13104;51.030;4.686;2024-02-14T05:45:17;1.85;;;1.50;;
25123;SDS011;13104;51.030;4.686;2024-02-14T05:47:43;1.55;;;1.33;;
25123;SDS011;13104;51.030;4.686;2024-02-14T05:50:09;3.45;;;1.60;;
25123;SDS011;13104;51.030;4.686;2024-02-14T05:52:37;2.38;;;1.52;;
25123;SDS011;13104;51.030;4.686;2024-02-14T05:55:04;3.60;;;1.42;;
25123;SDS011;13104;51.030;4.686;2024-02-14T05:57:30;2.67;;;1.58;;
25123;SDS011;13104;51.030;4.686;2024-02-14T05:59:56;3.90;;;1.73;;
25123;SDS011;13104;51.030;4.686;2024-02-14T06:02:22;1.45;;;1.35;;
25123;SDS011;13104;51.030;4.686;2024-02-14T06:04:49;3.92;;;2.15;;
25123;SDS011;13104;51.030;4.686;2024-02-14T06:07:15;3.63;;;2.13;;
25123;SDS011;13104;51.030;4.686;2024-02-14T06:09:41;6.15;;;1.77;;
25123;SDS011;13104;51.030;4.686;2024-02-14T06:12:07;2.45;;;1.60;;
25123;SDS011;13104;51.030;4.686;2024-02-14T06:14:33;1.77;;;1.42;;
25123;SDS011;13104;51.030;4.686;2024-02-14T06:17:00;1.40;;;1.20;;
25123;SDS011;13104;51.030;4.686;2024-02-14T06:19:26;1.77;;;1.30;;
25123;SDS011;13104;51.030;4.686;2024-02-14T06:21:52;3.05;;;1.55;;
25123;SDS011;13104;51.030;4.686;2024-02-14T06:24:18;5.05;;;2.13;;
25123;SDS011;13104;51.030;4.686;2024-02-14T06:26:45;5.38;;;1.65;;
25123;SDS011;13104;51.030;4.686;2024-02-14T06:29:11;10.82;;;1.95;;
25123;SDS011;13104;51.030;4.686;2024-02-14T06:31:37;1.63;;;1.17;;
25123;SDS011;13104;51.030;4.686;2024-02-14T06:34:03;2.95;;;1.85;;
25123;SDS011;13104;51.030;4.686;2024-02-14T06:36:32;2.03;;;1.42;;
25123;SDS011;13104;51.030;4.686;2024-02-14T06:38:58;2.95;;;1.63;;
25123;SDS011;13104;51.030;4.686;2024-02-14T06:41:24;2.20;;;1.60;;
25123;SDS011;13104;51.030;4.686;2024-02-14T06:43:50;2.50;;;1.73;;
25123;SDS011;13104;51.030;4.686;2024-02-14T06:46:16;4.53;;;1.92;;
25123;SDS011;13104;51.030;4.686;2024-02-14T06:48:43;2.92;;;2.05;;
25123;SDS011;13104;51.030;4.686;2024-02-14T06:51:09;1.73;;;1.48;;
25123;SDS011;13104;51.030;4.686;2024-02-14T06:53:35;3.45;;;1.65;;
25123;SDS011;13104;51.030;4.686;2024-02-14T06:56:01;2.00;;;1.80;;
25123;SDS011;13104;51.030;4.686;2024-02-14T06:58:27;1.80;;;1.38;;
25123;SDS011;13104;51.030;4.686;2024-02-14T07:00:56;2.22;;;1.58;;
25123;SDS011;13104;51.030;4.686;2024-02-14T07:03:22;4.20;;;1.77;;
25123;SDS011;13104;51.030;4.686;2024-02-14T07:05:48;8.23;;;1.75;;
25123;SDS011;13104;51.030;4.686;2024-02-14T07:08:14;2.33;;;1.40;;
25123;SDS011;13104;51.030;4.686;2024-02-14T07:10:40;2.05;;;1.80;;
25123;SDS011;13104;51.030;4.686;2024-02-14T07:13:06;1.95;;;1.15;;
25123;SDS011;13104;51.030;4.686;2024-02-14T07:15:32;3.78;;;1.58;;
25123;SDS011;13104;51.030;4.686;2024-02-14T07:17:59;4.82;;;1.80;;
25123;SDS011;13104;51.030;4.686;2024-02-14T07:20:25;1.92;;;1.23;;
25123;SDS011;13104;51.030;4.686;2024-02-14T07:22:55;1.48;;;1.38;;
25123;SDS011;13104;51.030;4.686;2024-02-14T07:25:21;3.00;;;1.90;;
25123;SDS011;13104;51.030;4.686;2024-02-14T07:27:48;2.38;;;1.73;;
25123;SDS011;13104;51.030;4.686;2024-02-14T07:30:17;3.40;;;2.00;;
25123;SDS011;13104;51.030;4.686;2024-02-14T07:32:44;2.05;;;1.50;;
25123;SDS011;13104;51.030;4.686;2024-02-14T07:35:10;2.25;;;1.80;;
25123;SDS011;13104;51.030;4.686;2024-02-14T07:37:38;3.15;;;1.40;;
25123;SDS011;13104;51.030;4.686;2024-02-14T07:40:04;4.40;;;1.45;;
25123;SDS011;13104;51.030;4.686;2024-02-14T07:42:31;7.32;;;1.70;;
25123;SDS011;13104;51.030;4.686;2024-02-14T07:44:57;2.05;;;1.38;;
25123;SDS011;13104;51.030;4.686;2024-02-14T07:47:23;2.05;;;1.60;;
25123;SDS011;13104;51.030;4.686;2024-02-14T07:49:49;2.55;;;2.00;;
25123;SDS011;13104;51.030;4.686;2024-02-14T07:52:18;2.75;;;1.92;;
25123;SDS011;13104;51.030;4.686;2024-02-14T07:54:44;3.00;;;1.70;;
25123;SDS011;13104;51.030;4.686;2024-02-14T07:57:10;2.90;;;1.65;;
25123;SDS011;13104;51.030;4.686;2024-02-14T07:59:36;1.30;;;1.20;;
25123;SDS011;13104;51.030;4.686;2024-02-14T08:02:02;4.28;;;2.25;;
25123;SDS011;13104;51.030;4.686;2024-02-14T08:04:28;6.90;;;1.25;;
25123;SDS011;13104;51.030;4.686;2024-02-14T08:06:54;1.80;;;1.42;;
25123;SDS011;13104;51.030;4.686;2024-02-14T08:09:20;2.17;;;1.65;;
25123;SDS011;13104;51.030;4.686;2024-02-14T08:11:46;2.42;;;1.90;;
25123;SDS011;13104;51.030;4.686;2024-02-14T08:14:12;2.33;;;1.50;;
25123;SDS011;13104;51.030;4.686;2024-02-14T08:16:39;3.25;;;1.60;;
25123;SDS011;13104;51.030;4.686;2024-02-14T08:19:05;13.55;;;1.50;;
25123;SDS011;13104;51.030;4.686;2024-02-14T08:21:31;2.03;;;1.42;;
25123;SDS011;13104;51.030;4.686;2024-02-14T08:23:57;9.18;;;1.42;;
25123;SDS011;13104;51.030;4.686;2024-02-14T08:26:24;1.70;;;1.48;;
25123;SDS011;13104;51.030;4.686;2024-02-14T08:28:50;1.50;;;1.40;;
25123;SDS011;13104;51.030;4.686;2024-02-14T08:31:16;3.08;;;1.42;;
25123;SDS011;13104;51.030;4.686;2024-02-14T08:33:42;2.50;;;1.65;;
25123;SDS011;13104;51.030;4.686;2024-02-14T08:36:08;3.33;;;1.38;;
25123;SDS011;13104;51.030;4.686;2024-02-14T08:38:35;6.35;;;1.98;;
25123;SDS011;13104;51.030;4.686;2024-02-14T08:41:01;3.95;;;1.85;;
25123;SDS011;13104;51.030;4.686;2024-02-14T08:43:27;3.30;;;1.55;;
25123;SDS011;13104;51.030;4.686;2024-02-14T08:45:54;3.03;;;1.45;;
25123;SDS011;13104;51.030;4.686;2024-02-14T08:48:20;2.15;;;1.45;;
25123;SDS011;13104;51.030;4.686;2024-02-14T08:50:46;3.63;;;1.77;;
25123;SDS011;13104;51.030;4.686;2024-02-14T08:53:13;2.17;;;1.52;;
25123;SDS011;13104;51.030;4.686;2024-02-14T08:55:42;2.60;;;1.83;;
25123;SDS011;13104;51.030;4.686;2024-02-14T08:58:08;2.53;;;1.80;;
25123;SDS011;13104;51.030;4.686;2024-02-14T09:00:35;2.47;;;1.73;;
25123;SDS011;13104;51.030;4.686;2024-02-14T09:03:02;13.43;;;1.90;;
25123;SDS011;13104;51.030;4.686;2024-02-14T09:05:28;2.65;;;1.35;;
25123;SDS011;13104;51.030;4.686;2024-02-14T09:07:55;12.98;;;2.33;;
25123;SDS011;13104;51.030;4.686;2024-02-14T09:10:21;3.78;;;2.15;;
25123;SDS011;13104;51.030;4.686;2024-02-14T09:12:47;4.97;;;1.75;;
25123;SDS011;13104;51.030;4.686;2024-02-14T09:15:13;3.30;;;1.90;;
25123;SDS011;13104;51.030;4.686;2024-02-14T09:17:39;4.35;;;1.80;;
25123;SDS011;13104;51.030;4.686;2024-02-14T09:20:07;10.45;;;2.47;;
25123;SDS011;13104;51.030;4.686;2024-02-14T09:22:37;3.55;;;1.98;;
25123;SDS011;13104;51.030;4.686;2024-02-14T09:25:06;1.83;;;1.35;;
25123;SDS011;13104;51.030;4.686;2024-02-14T09:27:34;2.35;;;1.73;;
25123;SDS011;13104;51.030;4.686;2024-02-14T09:30:01;1.67;;;1.50;;
25123;SDS011;13104;51.030;4.686;2024-02-14T09:32:29;4.57;;;1.80;;
25123;SDS011;13104;51.030;4.686;2024-02-14T09:34:55;4.53;;;1.95;;
25123;SDS011;13104;51.030;4.686;2024-02-14T09:37:22;2.38;;;1.63;;
25123;SDS011;13104;51.030;4.686;2024-02-14T09:39:48;3.13;;;2.03;;
25123;SDS011;13104;51.030;4.686;2024-02-14T09:42:15;2.38;;;1.65;;
25123;SDS011;13104;51.030;4.686;2024-02-14T09:44:42;3.13;;;2.20;;
25123;SDS011;13104;51.030;4.686;2024-02-14T09:47:09;2.00;;;1.63;;
25123;SDS011;13104;51.030;4.686;2024-02-14T09:49:36;4.90;;;2.03;;
25123;SDS011;13104;51.030;4.686;2024-02-14T09:52:02;3.15;;;2.25;;
25123;SDS011;13104;51.030;4.686;2024-02-14T09:54:28;9.02;;;2.25;;
25123;SDS011;13104;51.030;4.686;2024-02-14T09:56:56;5.05;;;2.10;;
25123;SDS011;13104;51.030;4.686;2024-02-14T09:59:23;4.03;;;1.98;;
25123;SDS011;13104;51.030;4.686;2024-02-14T10:01:50;8.90;;;2.35;;
25123;SDS011;13104;51.030;4.686;2024-02-14T10:04:17;3.22;;;2.28;;
25123;SDS011;13104;51.030;4.686;2024-02-14T10:06:47;5.50;;;2.20;;
25123;SDS011;13104;51.030;4.686;2024-02-14T10:09:18;3.58;;;2.17;;
25123;SDS011;13104;51.030;4.686;2024-02-14T10:11:44;5.20;;;1.48;;
25123;SDS011;13104;51.030;4.686;2024-02-14T10:14:11;4.05;;;1.80;;
25123;SDS011;13104;51.030;4.686;2024-02-14T10:16:38;3.25;;;1.65;;
25123;SDS011;13104;51.030;4.686;2024-02-14T10:19:04;4.30;;;2.20;;
25123;SDS011;13104;51.030;4.686;2024-02-14T10:21:33;2.85;;;1.50;;
25123;SDS011;13104;51.030;4.686;2024-02-14T10:24:00;3.30;;;1.73;;
25123;SDS011;13104;51.030;4.686;2024-02-14T10:26:26;5.82;;;1.92;;
25123;SDS011;13104;51.030;4.686;2024-02-14T10:28:52;5.45;;;1.67;;
25123;SDS011;13104;51.030;4.686;2024-02-14T10:31:21;2.97;;;1.83;;
25123;SDS011;13104;51.030;4.686;2024-02-14T10:33:47;1.90;;;1.60;;
25123;SDS011;13104;51.030;4.686;2024-02-14T10:36:13;1.70;;;1.25;;
25123;SDS011;13104;51.030;4.686;2024-02-14T10:38:40;2.25;;;1.40;;
25123;SDS011;13104;51.030;4.686;2024-02-14T10:41:07;2.13;;;1.38;;
25123;SDS011;13104;51.030;4.686;2024-02-14T10:43:33;6.15;;;1.95;;
25123;SDS011;13104;51.030;4.686;2024-02-14T10:46:04;5.95;;;1.63;;
25123;SDS011;13104;51.030;4.686;2024-02-14T10:48:33;1.58;;;1.23;;
25123;SDS011;13104;51.030;4.686;2024-02-14T10:51:00;3.03;;;1.10;;
25123;SDS011;13104;51.030;4.686;2024-02-14T10:53:29;2.30;;;1.45;;
25123;SDS011;13104;51.030;4.686;2024-02-14T10:55:55;2.03;;;0.85;;
25123;SDS011;13104;51.030;4.686;2024-02-14T10:58:23;1.27;;;0.98;;
25123;SDS011;13104;51.030;4.686;2024-02-14T11:00:50;0.80;;;0.80;;
25123;SDS011;13104;51.030;4.686;2024-02-14T11:03:16;1.35;;;1.05;;
25123;SDS011;13104;51.030;4.686;2024-02-14T11:05:44;1.08;;;0.98;;
25123;SDS011;13104;51.030;4.686;2024-02-14T11:08:13;1.92;;;1.13;;
25123;SDS011;13104;51.030;4.686;2024-02-14T11:10:40;1.65;;;0.80;;
25123;SDS011;13104;51.030;4.686;2024-02-14T11:13:12;2.83;;;1.05;;
25123;SDS011;13104;51.030;4.686;2024-02-14T11:15:44;0.82;;;0.82;;
25123;SDS011;13104;51.030;4.686;2024-02-14T11:18:12;1.00;;;0.90;;
25123;SDS011;13104;51.030;4.686;2024-02-14T11:20:38;1.05;;;0.95;;
25123;SDS011;13104;51.030;4.686;2024-02-14T11:23:06;0.80;;;0.80;;
25123;SDS011;13104;51.030;4.686;2024-02-14T11:25:36;0.68;;;0.68;;
25123;SDS011;13104;51.030;4.686;2024-02-14T11:28:12;0.57;;;0.50;;
25123;SDS011;13104;51.030;4.686;2024-02-14T11:30:39;1.05;;;0.68;;
25123;SDS011;13104;51.030;4.686;2024-02-14T11:35:47;0.50;;;0.50;;
25123;SDS011;13104;51.030;4.686;2024-02-14T11:38:18;0.60;;;0.60;;
25123;SDS011;13104;51.030;4.686;2024-02-14T11:40:44;5.97;;;0.60;;
25123;SDS011;13104;51.030;4.686;2024-02-14T11:43:14;1.30;;;0.60;;
25123;SDS011;13104;51.030;4.686;2024-02-14T11:45:42;0.63;;;0.50;;
25123;SDS011;13104;51.030;4.686;2024-02-14T11:48:09;0.73;;;0.70;;
25123;SDS011;13104;51.030;4.686;2024-02-14T11:50:35;0.68;;;0.68;;
25123;SDS011;13104;51.030;4.686;2024-02-14T11:53:01;6.32;;;1.38;;
25123;SDS011;13104;51.030;4.686;2024-02-14T11:55:29;0.95;;;0.82;;
25123;SDS011;13104;51.030;4.686;2024-02-14T11:57:57;0.77;;;0.50;;
25123;SDS011;13104;51.030;4.686;2024-02-14T12:00:23;1.08;;;0.80;;
25123;SDS011;13104;51.030;4.686;2024-02-14T12:02:50;0.60;;;0.60;;
25123;SDS011;13104;51.030;4.686;2024-02-14T12:05:16;2.58;;;0.70;;
25123;SDS011;13104;51.030;4.686;2024-02-14T12:07:44;0.50;;;0.50;;
25123;SDS011;13104;51.030;4.686;2024-02-14T12:10:10;1.35;;;0.98;;
25123;SDS011;13104;51.030;4.686;2024-02-14T12:12:37;1.52;;;0.90;;
25123;SDS011;13104;51.030;4.686;2024-02-14T12:15:04;0.60;;;0.60;;
25123;SDS011;13104;51.030;4.686;2024-02-14T12:17:31;0.70;;;0.65;;
25123;SDS011;13104;51.030;4.686;2024-02-14T12:20:10;7.47;;;1.00;;
25123;SDS011;13104;51.030;4.686;2024-02-14T12:22:38;1.58;;;0.98;;
25123;SDS011;13104;51.030;4.686;2024-02-14T12:25:07;1.48;;;0.80;;
25123;SDS011;13104;51.030;4.686;2024-02-14T12:27:36;0.73;;;0.73;;
25123;SDS011;13104;51.030;4.686;2024-02-14T12:30:04;1.23;;;0.60;;
25123;SDS011;13104;51.030;4.686;2024-02-14T12:32:30;1.65;;;1.55;;
25123;SDS011;13104;51.030;4.686;2024-02-14T12:34:57;1.92;;;1.25;;
25123;SDS011;13104;51.030;4.686;2024-02-14T12:37:23;1.35;;;1.00;;
25123;SDS011;13104;51.030;4.686;2024-02-14T12:39:49;2.35;;;1.15;;
25123;SDS011;13104;51.030;4.686;2024-02-14T12:42:15;1.90;;;1.20;;
25123;SDS011;13104;51.030;4.686;2024-02-14T12:44:43;1.17;;;1.08;;
25123;SDS011;13104;51.030;4.686;2024-02-14T12:47:09;2.05;;;1.25;;
25123;SDS011;13104;51.030;4.686;2024-02-14T12:49:35;2.25;;;0.80;;
25123;SDS011;13104;51.030;4.686;2024-02-14T12:52:02;1.13;;;1.02;;
25123;SDS011;13104;51.030;4.686;2024-02-14T12:54:29;1.00;;;0.90;;
25123;SDS011;13104;51.030;4.686;2024-02-14T12:56:55;1.10;;;1.00;;
25123;SDS011;13104;51.030;4.686;2024-02-14T12:59:21;2.38;;;1.48;;
25123;SDS011;13104;51.030;4.686;2024-02-14T13:01:47;1.52;;;1.30;;
25123;SDS011;13104;51.030;4.686;2024-02-14T13:04:14;1.20;;;1.05;;
25123;SDS011;13104;51.030;4.686;2024-02-14T13:06:41;1.17;;;1.05;;
25123;SDS011;13104;51.030;4.686;2024-02-14T13:09:07;2.08;;;1.10;;
25123;SDS011;13104;51.030;4.686;2024-02-14T13:11:34;1.88;;;1.42;;
25123;SDS011;13104;51.030;4.686;2024-02-14T13:14:00;3.70;;;1.45;;
25123;SDS011;13104;51.030;4.686;2024-02-14T13:16:26;1.30;;;1.20;;
25123;SDS011;13104;51.030;4.686;2024-02-14T13:18:52;2.30;;;1.13;;
25123;SDS011;13104;51.030;4.686;2024-02-14T13:21:19;1.75;;;1.20;;
25123;SDS011;13104;51.030;4.686;2024-02-14T13:23:45;3.38;;;1.40;;
25123;SDS011;13104;51.030;4.686;2024-02-14T13:26:11;4.03;;;1.65;;
25123;SDS011;13104;51.030;4.686;2024-02-14T13:28:38;6.15;;;1.85;;
25123;SDS011;13104;51.030;4.686;2024-02-14T13:31:05;3.58;;;1.58;;
25123;SDS011;13104;51.030;4.686;2024-02-14T13:33:31;1.67;;;1.35;;
25123;SDS011;13104;51.030;4.686;2024-02-14T13:35:57;2.28;;;1.27;;
25123;SDS011;13104;51.030;4.686;2024-02-14T13:38:24;2.83;;;1.15;;
25123;SDS011;13104;51.030;4.686;2024-02-14T13:40:50;4.15;;;1.40;;
25123;SDS011;13104;51.030;4.686;2024-02-14T13:43:16;2.40;;;1.10;;
25123;SDS011;13104;51.030;4.686;2024-02-14T13:45:43;0.80;;;0.80;;
25123;SDS011;13104;51.030;4.686;2024-02-14T13:48:09;1.23;;;1.00;;
25123;SDS011;13104;51.030;4.686;2024-02-14T13:50:35;1.17;;;1.08;;
25123;SDS011;13104;51.030;4.686;2024-02-14T13:53:02;1.48;;;1.23;;
25123;SDS011;13104;51.030;4.686;2024-02-14T13:55:29;7.88;;;1.05;;
25123;SDS011;13104;51.030;4.686;2024-02-14T13:57:55;1.30;;;1.00;;
25123;SDS011;13104;51.030;4.686;2024-02-14T14:00:21;0.73;;;0.60;;
25123;SDS011;13104;51.030;4.686;2024-02-14T14:02:47;1.40;;;1.30;;
25123;SDS011;13104;51.030;4.686;2024-02-14T14:05:13;1.02;;;0.90;;
25123;SDS011;13104;51.030;4.686;2024-02-14T14:07:39;1.10;;;1.00;;
25123;SDS011;13104;51.030;4.686;2024-02-14T14:10:06;1.00;;;0.88;;
25123;SDS011;13104;51.030;4.686;2024-02-14T14:12:32;5.68;;;1.23;;
25123;SDS011;13104;51.030;4.686;2024-02-14T14:14:59;1.52;;;1.00;;
25123;SDS011;13104;51.030;4.686;2024-02-14T14:17:25;2.53;;;1.33;;
25123;SDS011;13104;51.030;4.686;2024-02-14T14:19:51;1.00;;;0.90;;
25123;SDS011;13104;51.030;4.686;2024-02-14T14:22:17;0.80;;;0.80;;
25123;SDS011;13104;51.030;4.686;2024-02-14T14:24:43;1.23;;;0.95;;
25123;SDS011;13104;51.030;4.686;2024-02-14T14:27:10;0.95;;;0.85;;
25123;SDS011;13104;51.030;4.686;2024-02-14T14:29:40;1.25;;;0.90;;
25123;SDS011;13104;51.030;4.686;2024-02-14T14:32:09;0.73;;;0.73;;
25123;SDS011;13104;51.030;4.686;2024-02-14T14:34:35;0.60;;;0.60;;
25123;SDS011;13104;51.030;4.686;2024-02-14T14:37:02;6.45;;;0.80;;
25123;SDS011;13104;51.030;4.686;2024-02-14T14:39:28;1.25;;;1.08;;
25123;SDS011;13104;51.030;4.686;2024-02-14T14:41:56;2.97;;;1.40;;
25123;SDS011;13104;51.030;4.686;2024-02-14T14:44:26;0.68;;;0.68;;
25123;SDS011;13104;51.030;4.686;2024-02-14T14:46:53;1.17;;;0.90;;